Time;durP1;ratioP1;P1;durP2;ratioP2;P2;SDS_P1;SDS_P2;PMS_P1;PMS_P2;Temp;Humidity;BMP_temperature;BMP_pressure;BME280_temperature;BME280_humidity;BME280_pressure;Samples;Min_cycle;Max_cycle;Signal;HPM_P1;HPM_P2
2023/10/30 00:00:24;;;;;;;7.05;1.50;;;11.30;99.90;;;;;;6273486;22;19991;-80
2023/10/30 00:02:50;;;;;;;5.75;1.35;;;11.30;99.90;;;;;;6272807;22;20000;-80
2023/10/30 00:05:16;;;;;;;4.72;1.20;;;11.30;99.90;;;;;;6272403;22;20004;-81
2023/10/30 00:07:41;;;;;;;4.72;1.40;;;11.30;99.90;;;;;;6273149;22;20075;-81
2023/10/30 00:10:07;;;;;;;7.32;1.38;;;11.30;99.90;;;;;;6272607;22;20043;-80
2023/10/30 00:12:33;;;;;;;4.45;1.25;;;11.20;99.90;;;;;;6273218;22;20003;-81
2023/10/30 00:15:02;;;;;;;8.80;1.55;;;11.20;99.90;;;;;;6272217;22;20414;-81
2023/10/30 00:17:28;;;;;;;7.68;1.40;;;11.10;99.90;;;;;;6273419;22;20010;-80
2023/10/30 00:19:54;;;;;;;5.90;1.55;;;11.10;99.90;;;;;;6271703;22;20008;-80
2023/10/30 00:22:19;;;;;;;5.65;1.27;;;11.20;99.90;;;;;;6245869;22;20087;-80
2023/10/30 00:24:45;;;;;;;8.60;1.25;;;11.10;99.90;;;;;;6245342;22;20006;-80
2023/10/30 00:27:11;;;;;;;6.32;1.00;;;11.10;99.90;;;;;;6272521;22;19996;-80
2023/10/30 00:29:40;;;;;;;6.95;1.75;;;11.10;99.90;;;;;;6272864;22;20006;-80
2023/10/30 00:32:06;;;;;;;5.70;1.30;;;11.20;99.90;;;;;;6272706;22;20011;-80
2023/10/30 00:34:32;;;;;;;5.70;1.55;;;11.20;99.90;;;;;;6272767;22;20426;-80
2023/10/30 00:36:57;;;;;;;5.35;1.35;;;11.20;99.90;;;;;;6272384;22;20015;-80
2023/10/30 00:39:23;;;;;;;7.25;1.40;;;11.20;99.90;;;;;;6273101;22;20024;-80
2023/10/30 00:41:49;;;;;;;7.03;1.52;;;11.20;99.90;;;;;;6272552;22;19996;-80
2023/10/30 00:44:14;;;;;;;4.90;1.15;;;11.20;99.90;;;;;;6273005;22;20022;-80
2023/10/30 00:46:40;;;;;;;9.80;1.08;;;11.20;99.90;;;;;;6273125;22;19995;-80
2023/10/30 00:49:05;;;;;;;5.85;1.02;;;11.20;99.90;;;;;;6271644;22;20046;-80
2023/10/30 00:51:31;;;;;;;8.60;1.75;;;11.20;99.90;;;;;;6273014;22;20003;-80
2023/10/30 00:53:57;;;;;;;7.60;1.23;;;11.30;99.90;;;;;;6272575;22;20011;-80
2023/10/30 00:56:22;;;;;;;5.28;1.58;;;11.30;99.90;;;;;;6272872;22;20089;-80
2023/10/30 00:58:48;;;;;;;6.20;1.25;;;11.30;99.90;;;;;;6272120;22;20425;-80
2023/10/30 01:01:16;;;;;;;7.88;1.30;;;11.30;99.90;;;;;;6272806;22;20082;-79
2023/10/30 01:03:42;;;;;;;7.82;1.17;;;11.30;99.90;;;;;;6272175;22;20440;-80
2023/10/30 01:06:08;;;;;;;8.35;1.42;;;11.30;99.90;;;;;;6271941;22;20027;-80
2023/10/30 01:08:33;;;;;;;10.05;2.28;;;11.40;99.90;;;;;;6272826;22;20027;-81
2023/10/30 01:10:59;;;;;;;4.72;1.20;;;11.40;99.90;;;;;;6271980;22;20007;-80
2023/10/30 01:13:25;;;;;;;3.58;1.23;;;11.40;99.90;;;;;;6272680;22;19996;-80
2023/10/30 01:15:54;;;;;;;8.45;1.92;;;11.40;99.90;;;;;;6272744;22;20022;-80
2023/10/30 01:18:20;;;;;;;8.65;2.15;;;11.40;99.90;;;;;;6271787;22;20443;-80
2023/10/30 01:20:49;;;;;;;8.65;1.42;;;11.40;99.90;;;;;;6245609;22;20078;-80
2023/10/30 01:23:15;;;;;;;7.55;1.55;;;11.40;99.90;;;;;;6271966;22;20004;-80
2023/10/30 01:25:41;;;;;;;10.77;1.70;;;11.40;99.90;;;;;;6272656;22;19995;-80
2023/10/30 01:28:06;;;;;;;5.78;1.58;;;11.40;99.90;;;;;;6271616;22;20007;-80
2023/10/30 01:30:33;;;;;;;7.45;1.27;;;11.40;99.90;;;;;;6245509;22;20007;-81
2023/10/30 01:32:59;;;;;;;9.90;1.55;;;11.50;99.90;;;;;;6271085;22;20007;-79
2023/10/30 01:35:25;;;;;;;4.85;1.02;;;11.50;99.90;;;;;;6272491;22;19996;-80
2023/10/30 01:37:51;;;;;;;8.38;1.40;;;11.50;99.90;;;;;;6271938;22;20403;-81
2023/10/30 01:40:16;;;;;;;6.20;1.50;;;11.50;99.90;;;;;;6244949;22;20007;-80
2023/10/30 01:42:42;;;;;;;10.15;1.77;;;11.50;99.90;;;;;;6272488;22;20400;-80
2023/10/30 01:45:08;;;;;;;9.68;1.60;;;11.50;99.90;;;;;;6271328;22;20004;-80
2023/10/30 01:47:34;;;;;;;7.80;1.70;;;11.50;99.90;;;;;;6272144;22;20329;-80
2023/10/30 01:50:01;;;;;;;12.13;1.60;;;11.50;99.90;;;;;;6271402;22;20006;-80
2023/10/30 01:52:29;;;;;;;6.00;1.85;;;11.50;99.90;;;;;;6272531;22;20027;-80
2023/10/30 01:54:55;;;;;;;8.45;1.77;;;11.50;99.90;;;;;;6271941;22;20494;-80
2023/10/30 01:57:22;;;;;;;12.02;1.70;;;11.50;99.90;;;;;;6272094;22;20000;-81
2023/10/30 01:59:50;;;;;;;5.78;2.42;;;11.60;99.90;;;;;;6244819;22;20429;-80
2023/10/30 02:02:21;;;;;;;12.70;1.85;;;11.60;99.90;;;;;;6244510;22;20057;-81
2023/10/30 02:04:47;;;;;;;7.32;1.90;;;11.60;99.90;;;;;;6245171;22;20003;-80
2023/10/30 02:07:12;;;;;;;7.45;1.65;;;11.60;99.90;;;;;;6271783;22;19996;-80
2023/10/30 02:09:38;;;;;;;7.68;1.38;;;11.60;99.90;;;;;;6272455;22;20007;-82
2023/10/30 02:12:04;;;;;;;8.00;1.73;;;11.60;99.90;;;;;;6271646;22;20022;-80
2023/10/30 02:14:30;;;;;;;7.03;1.27;;;11.60;99.90;;;;;;6273222;22;20350;-80
2023/10/30 02:16:55;;;;;;;10.93;1.83;;;11.60;99.90;;;;;;6273817;22;20008;-80
2023/10/30 02:19:26;;;;;;;10.50;1.35;;;11.70;99.90;;;;;;6273952;22;20008;-80
2023/10/30 02:21:52;;;;;;;9.63;1.13;;;11.70;99.90;;;;;;6274304;22;20027;-80
2023/10/30 02:24:18;;;;;;;12.63;1.35;;;11.70;99.90;;;;;;6273701;22;20018;-80
2023/10/30 02:26:44;;;;;;;11.23;1.90;;;11.70;99.90;;;;;;6247192;22;20357;-80
2023/10/30 02:29:09;;;;;;;6.68;1.55;;;11.70;99.90;;;;;;6273563;22;20000;-80
2023/10/30 02:31:35;;;;;;;10.63;1.20;;;11.70;99.90;;;;;;6274115;22;19999;-80
2023/10/30 02:34:01;;;;;;;9.90;1.85;;;11.70;99.90;;;;;;6273435;22;20003;-81
2023/10/30 02:36:26;;;;;;;6.50;1.48;;;11.70;99.90;;;;;;6274543;22;20008;-80
2023/10/30 02:38:55;;;;;;;10.93;2.28;;;11.70;99.90;;;;;;6273331;22;20344;-80
2023/10/30 02:41:21;;;;;;;6.97;1.95;;;11.70;99.90;;;;;;6271957;22;20003;-80
2023/10/30 02:43:47;;;;;;;6.03;1.67;;;11.70;99.90;;;;;;6273020;22;19999;-81
2023/10/30 02:46:12;;;;;;;11.70;1.65;;;11.70;99.90;;;;;;6272775;22;20448;-80
2023/10/30 02:48:38;;;;;;;10.45;2.75;;;11.70;99.90;;;;;;6273767;22;20000;-80
2023/10/30 02:51:04;;;;;;;8.32;1.73;;;11.80;99.90;;;;;;6246122;22;20015;-80
2023/10/30 02:53:29;;;;;;;3.95;1.35;;;11.80;99.90;;;;;;6274100;22;20007;-80
2023/10/30 02:55:55;;;;;;;8.10;1.15;;;11.70;99.90;;;;;;6273801;22;20007;-80
2023/10/30 02:58:21;;;;;;;8.48;2.65;;;11.80;99.90;;;;;;6272803;22;20008;-80
2023/10/30 03:00:46;;;;;;;7.15;1.27;;;11.70;99.90;;;;;;6273866;22;19995;-80
2023/10/30 03:03:12;;;;;;;9.07;1.80;;;11.80;99.90;;;;;;6273295;22;20002;-80
2023/10/30 03:05:38;;;;;;;11.40;1.25;;;11.80;99.90;;;;;;6274095;22;20027;-80
2023/10/30 03:08:04;;;;;;;8.35;1.27;;;11.80;99.90;;;;;;6273245;22;20022;-81
2023/10/30 03:10:30;;;;;;;7.20;0.98;;;11.70;99.90;;;;;;6274074;22;20062;-80
2023/10/30 03:12:56;;;;;;;4.55;1.05;;;11.80;99.90;;;;;;6273077;22;19996;-80
2023/10/30 03:15:22;;;;;;;9.70;1.38;;;11.80;99.90;;;;;;6273510;22;20102;-80
2023/10/30 03:17:47;;;;;;;9.82;1.60;;;11.70;99.90;;;;;;6273602;22;20035;-80
2023/10/30 03:20:14;;;;;;;4.07;1.30;;;11.70;99.90;;;;;;6246388;22;20015;-80
2023/10/30 03:22:40;;;;;;;4.90;0.90;;;11.70;99.90;;;;;;6273992;22;20000;-80
2023/10/30 03:25:06;;;;;;;9.90;1.60;;;11.70;99.90;;;;;;6273133;22;20000;-80
2023/10/30 03:27:33;;;;;;;6.60;1.55;;;11.70;99.90;;;;;;6272663;22;20003;-81
2023/10/30 03:29:59;;;;;;;6.80;1.30;;;11.70;99.90;;;;;;6273348;22;20449;-80
2023/10/30 03:32:24;;;;;;;11.80;1.50;;;11.70;99.90;;;;;;6273601;22;20033;-81
2023/10/30 03:34:50;;;;;;;5.53;1.05;;;11.60;99.90;;;;;;6273533;22;19999;-81
2023/10/30 03:37:15;;;;;;;11.55;2.30;;;11.60;99.90;;;;;;6272958;22;20007;-80
2023/10/30 03:39:41;;;;;;;5.88;1.20;;;11.60;99.90;;;;;;6273705;22;20437;-80
2023/10/30 03:42:06;;;;;;;6.57;1.33;;;11.50;99.90;;;;;;6272123;22;20062;-81
2023/10/30 03:44:32;;;;;;;9.25;2.08;;;11.50;99.90;;;;;;6273701;22;20034;-81
2023/10/30 03:46:58;;;;;;;9.43;1.88;;;11.50;99.90;;;;;;6273085;22;20383;-80
2023/10/30 03:49:23;;;;;;;5.45;1.42;;;11.50;99.90;;;;;;6273474;22;20082;-80
2023/10/30 03:51:49;;;;;;;5.63;1.10;;;11.50;99.90;;;;;;6273231;22;20064;-80
2023/10/30 03:54:15;;;;;;;6.72;1.67;;;11.40;99.90;;;;;;6245950;22;20004;-80
2023/10/30 03:56:40;;;;;;;6.95;1.05;;;11.40;99.90;;;;;;6273017;22;20038;-80
2023/10/30 03:59:06;;;;;;;4.35;1.50;;;11.40;99.90;;;;;;6272815;22;20057;-80
2023/10/30 04:01:31;;;;;;;6.85;1.05;;;11.40;99.90;;;;;;6273490;22;20061;-80
2023/10/30 04:03:57;;;;;;;9.80;1.17;;;11.30;99.90;;;;;;6273009;22;20007;-80
2023/10/30 04:06:22;;;;;;;5.30;1.42;;;11.30;99.90;;;;;;6272991;22;19995;-80
2023/10/30 04:08:48;;;;;;;7.57;1.65;;;11.30;99.90;;;;;;6273256;22;19999;-80
2023/10/30 04:11:16;;;;;;;11.30;0.98;;;11.20;99.90;;;;;;6272045;22;20011;-80
2023/10/30 04:13:42;;;;;;;11.00;1.13;;;11.20;99.90;;;;;;6273468;22;20004;-80
2023/10/30 04:16:15;;;;;;;5.05;1.35;;;11.10;99.90;;;;;;6272179;22;20114;-80
2023/10/30 04:18:41;;;;;;;8.55;1.52;;;11.10;99.90;;;;;;6246354;22;20372;-80
2023/10/30 04:21:07;;;;;;;7.68;0.90;;;11.10;99.90;;;;;;6245202;22;20000;-80
2023/10/30 04:23:32;;;;;;;12.77;1.83;;;11.00;99.90;;;;;;6273253;22;20057;-80
2023/10/30 04:25:58;;;;;;;8.38;1.30;;;11.00;99.90;;;;;;6272032;22;20192;-79
2023/10/30 04:28:23;;;;;;;9.25;1.42;;;11.00;99.90;;;;;;6273220;22;20007;-80
2023/10/30 04:30:49;;;;;;;7.15;1.60;;;11.00;99.90;;;;;;6245719;22;20073;-80
2023/10/30 04:33:15;;;;;;;12.07;1.98;;;10.90;99.90;;;;;;6272736;22;20011;-80
2023/10/30 04:35:41;;;;;;;9.43;1.38;;;10.90;99.90;;;;;;6272975;22;20372;-80
2023/10/30 04:38:07;;;;;;;8.15;1.52;;;10.90;99.90;;;;;;6272199;22;20015;-80
2023/10/30 04:40:33;;;;;;;9.93;1.17;;;10.90;99.90;;;;;;6272427;22;20007;-80
2023/10/30 04:42:58;;;;;;;8.38;1.95;;;10.90;99.90;;;;;;6272542;22;20429;-80
2023/10/30 04:45:24;;;;;;;9.18;0.98;;;10.80;99.90;;;;;;6272759;22;20000;-79
2023/10/30 04:47:49;;;;;;;8.98;1.30;;;10.80;99.90;;;;;;6273012;22;20006;-80
2023/10/30 04:50:15;;;;;;;9.25;1.60;;;10.80;99.90;;;;;;6245423;22;20014;-79
2023/10/30 04:52:41;;;;;;;9.05;1.35;;;10.80;99.90;;;;;;6246006;22;19999;-80
2023/10/30 04:55:06;;;;;;;8.25;1.38;;;10.80;99.90;;;;;;6271835;22;20049;-80
2023/10/30 04:57:32;;;;;;;8.77;1.25;;;10.80;99.90;;;;;;6271038;22;20004;-80
2023/10/30 04:59:58;;;;;;;8.82;1.73;;;10.80;99.90;;;;;;6272104;22;20038;-80
2023/10/30 05:02:24;;;;;;;10.07;1.02;;;10.80;99.90;;;;;;6272722;22;20011;-80
2023/10/30 05:04:49;;;;;;;11.80;2.25;;;10.70;99.90;;;;;;6245427;22;19996;-80
2023/10/30 05:07:15;;;;;;;6.40;1.70;;;10.70;99.90;;;;;;6272064;22;19996;-79
2023/10/30 05:09:41;;;;;;;8.15;1.73;;;10.70;99.90;;;;;;6272587;22;20010;-79
2023/10/30 05:12:07;;;;;;;5.28;1.20;;;10.70;99.90;;;;;;6271817;22;19996;-80
2023/10/30 05:14:32;;;;;;;7.13;1.08;;;10.70;99.90;;;;;;6272598;22;20053;-80
2023/10/30 05:16:58;;;;;;;6.65;1.00;;;10.70;99.90;;;;;;6272568;22;20050;-79
2023/10/30 05:19:23;;;;;;;8.27;1.65;;;10.70;99.90;;;;;;6245234;22;20015;-79
2023/10/30 05:21:49;;;;;;;7.05;1.00;;;10.70;99.90;;;;;;6272549;22;19996;-80
2023/10/30 05:24:14;;;;;;;9.57;1.25;;;10.60;99.90;;;;;;6271488;22;20366;-79
2023/10/30 05:26:40;;;;;;;14.55;1.17;;;10.60;99.90;;;;;;6272571;22;20310;-80
2023/10/30 05:29:05;;;;;;;5.55;1.08;;;10.60;99.90;;;;;;6271262;22;20000;-79
2023/10/30 05:31:31;;;;;;;5.53;1.08;;;10.60;99.90;;;;;;6272062;22;20050;-79
2023/10/30 05:33:56;;;;;;;4.38;1.00;;;10.60;99.90;;;;;;6272211;22;20000;-79
2023/10/30 05:36:22;;;;;;;13.20;1.67;;;10.60;99.90;;;;;;6272139;22;20011;-80
2023/10/30 05:38:47;;;;;;;5.38;1.00;;;10.60;99.90;;;;;;6271498;22;20008;-80
2023/10/30 05:41:13;;;;;;;8.65;1.85;;;10.70;99.90;;;;;;6271377;22;19996;-79
2023/10/30 05:43:39;;;;;;;6.75;1.33;;;10.70;99.90;;;;;;6272639;22;20405;-80
2023/10/30 05:46:04;;;;;;;6.47;1.23;;;10.70;99.90;;;;;;6271899;22;20372;-80
2023/10/30 05:48:30;;;;;;;13.13;1.88;;;10.70;99.90;;;;;;6272379;22;20018;-80
2023/10/30 05:50:55;;;;;;;7.85;1.55;;;10.70;99.90;;;;;;6270711;22;20004;-80
2023/10/30 05:53:21;;;;;;;9.40;1.45;;;10.70;99.90;;;;;;6269122;22;20004;-80
2023/10/30 05:55:46;;;;;;;9.57;1.52;;;10.70;99.90;;;;;;6243519;22;20607;-80
2023/10/30 05:58:12;;;;;;;10.68;1.70;;;10.70;99.90;;;;;;6270092;22;20445;-79
2023/10/30 06:00:38;;;;;;;9.93;2.13;;;10.70;99.90;;;;;;6271152;22;20429;-80
2023/10/30 06:03:08;;;;;;;10.05;1.67;;;10.70;99.90;;;;;;6271604;22;20008;-80
2023/10/30 06:05:33;;;;;;;5.70;0.85;;;10.70;99.90;;;;;;6272259;22;20006;-80
2023/10/30 06:07:59;;;;;;;8.30;1.65;;;10.70;99.90;;;;;;6271443;22;20024;-79
2023/10/30 06:10:24;;;;;;;10.90;1.25;;;10.70;99.90;;;;;;6272121;22;20025;-79
2023/10/30 06:12:50;;;;;;;5.35;1.33;;;10.70;99.90;;;;;;6272175;22;20058;-80
2023/10/30 06:15:16;;;;;;;7.72;0.98;;;10.70;99.90;;;;;;6271665;22;20000;-79
2023/10/30 06:17:42;;;;;;;6.28;1.20;;;10.70;99.90;;;;;;6272457;22;20000;-80
2023/10/30 06:20:09;;;;;;;11.18;1.70;;;10.70;99.90;;;;;;6244044;22;20022;-79
2023/10/30 06:22:34;;;;;;;8.48;1.23;;;10.70;99.90;;;;;;6271690;22;20027;-79
2023/10/30 06:25:00;;;;;;;10.05;1.52;;;10.70;99.90;;;;;;6271425;22;20422;-80
2023/10/30 06:27:31;;;;;;;11.02;1.52;;;10.70;99.90;;;;;;6244801;22;20008;-80
2023/10/30 06:29:58;;;;;;;6.18;1.52;;;10.70;99.90;;;;;;6244676;22;20004;-80
2023/10/30 06:32:23;;;;;;;6.85;1.70;;;10.70;99.90;;;;;;6272419;22;20004;-80
2023/10/30 06:34:49;;;;;;;8.05;1.40;;;10.70;99.90;;;;;;6271404;22;20449;-80
2023/10/30 06:37:15;;;;;;;7.63;1.17;;;10.70;99.90;;;;;;6270960;22;20003;-80
2023/10/30 06:39:41;;;;;;;12.65;1.20;;;10.70;99.90;;;;;;6239789;23;20476;-80
2023/10/30 06:42:07;;;;;;;7.13;1.30;;;10.70;99.90;;;;;;6240597;23;20000;-80
2023/10/30 06:44:34;;;;;;;7.90;1.45;;;10.70;99.90;;;;;;6239930;23;20337;-80
2023/10/30 06:47:00;;;;;;;8.68;1.52;;;10.70;99.90;;;;;;6240947;23;19992;-80
2023/10/30 06:49:26;;;;;;;7.85;1.33;;;10.80;99.90;;;;;;6241337;23;20106;-79
2023/10/30 06:51:51;;;;;;;14.30;1.50;;;10.70;99.90;;;;;;6240644;23;20307;-80
2023/10/30 06:54:17;;;;;;;7.07;1.98;;;10.80;99.90;;;;;;6240716;23;20403;-81
2023/10/30 06:56:42;;;;;;;7.53;1.80;;;10.70;99.90;;;;;;6241516;23;20083;-80
2023/10/30 06:59:12;;;;;;;13.30;1.42;;;10.80;99.90;;;;;;6240306;23;20059;-80
2023/10/30 07:01:45;;;;;;;9.30;1.30;;;10.80;99.90;;;;;;6242399;23;20430;-80
2023/10/30 07:04:15;;;;;;;7.05;1.60;;;10.90;99.90;;;;;;6242639;23;20445;-80
2023/10/30 07:06:42;;;;;;;9.00;1.65;;;10.80;99.90;;;;;;6241348;23;20013;-80
2023/10/30 07:09:08;;;;;;;7.68;1.75;;;10.90;99.90;;;;;;6242333;23;20004;-73
2023/10/30 07:11:37;;;;;;;7.30;1.42;;;10.90;99.90;;;;;;6243084;23;20008;-73
2023/10/30 07:14:04;;;;;;;7.68;1.92;;;10.90;99.90;;;;;;6242322;23;20011;-73
2023/10/30 07:16:30;;;;;;;11.40;1.80;;;11.00;99.90;;;;;;6242882;23;20321;-73
2023/10/30 07:18:56;;;;;;;9.73;2.65;;;11.00;99.90;;;;;;6242711;22;20018;-73
2023/10/30 07:21:22;;;;;;;7.22;1.33;;;11.00;99.90;;;;;;6242490;23;19996;-73
2023/10/30 07:23:48;;;;;;;11.85;2.25;;;11.10;99.90;;;;;;6243012;23;20000;-73
2023/10/30 07:26:14;;;;;;;6.75;1.75;;;11.10;99.90;;;;;;6242441;23;20075;-73
2023/10/30 07:28:39;;;;;;;8.07;1.88;;;11.20;99.90;;;;;;6243085;23;20079;-73
2023/10/30 07:31:05;;;;;;;8.85;1.73;;;11.20;99.90;;;;;;6242436;23;20143;-73
2023/10/30 07:33:30;;;;;;;11.98;1.65;;;11.30;99.90;;;;;;6242501;23;20369;-72
2023/10/30 07:36:00;;;;;;;11.13;2.28;;;11.30;99.90;;;;;;6241907;23;20429;-72
2023/10/30 07:38:27;;;;;;;8.85;1.73;;;11.30;99.90;;;;;;6255435;22;20015;-72
2023/10/30 07:40:53;;;;;;;9.70;2.13;;;11.40;99.90;;;;;;6245822;22;20007;-72
2023/10/30 07:43:18;;;;;;;7.32;1.65;;;11.40;99.90;;;;;;6272579;22;20008;-72
2023/10/30 07:45:44;;;;;;;12.07;1.90;;;11.50;99.90;;;;;;6273513;22;20023;-73
2023/10/30 07:48:09;;;;;;;9.25;2.03;;;11.50;99.90;;;;;;6272764;22;19995;-73
2023/10/30 07:50:38;;;;;;;10.18;1.60;;;11.50;99.90;;;;;;6272799;22;20000;-73
2023/10/30 07:53:04;;;;;;;10.65;1.80;;;11.50;99.90;;;;;;6272794;22;20014;-73
2023/10/30 07:55:30;;;;;;;11.50;2.53;;;11.50;99.90;;;;;;6273079;22;20000;-73
2023/10/30 07:57:56;;;;;;;8.63;1.70;;;11.60;99.90;;;;;;6272000;22;20071;-73
2023/10/30 08:00:21;;;;;;;7.57;2.22;;;11.60;99.90;;;;;;6270707;22;19996;-73
2023/10/30 08:02:47;;;;;;;7.00;1.77;;;11.60;99.90;;;;;;6273361;22;20049;-73
2023/10/30 08:05:15;;;;;;;6.88;1.63;;;11.60;99.90;;;;;;6243828;22;19999;-73
2023/10/30 08:07:44;;;;;;;13.75;2.38;;;11.70;99.90;;;;;;6273639;22;20318;-73
2023/10/30 08:10:10;;;;;;;12.68;2.92;;;11.70;99.90;;;;;;6272888;22;20082;-73
2023/10/30 08:12:36;;;;;;;11.55;2.42;;;11.70;99.90;;;;;;6272724;22;20074;-73
2023/10/30 08:15:02;;;;;;;8.52;1.83;;;11.70;99.90;;;;;;6244546;22;20422;-73
2023/10/30 08:17:28;;;;;;;8.23;2.58;;;11.70;99.90;;;;;;6272118;22;20004;-73
2023/10/30 08:19:53;;;;;;;10.45;2.67;;;11.80;99.90;;;;;;6272501;22;20441;-73
2023/10/30 08:22:19;;;;;;;8.10;2.78;;;11.90;99.90;;;;;;6272581;22;20788;-73
2023/10/30 08:24:44;;;;;;;13.48;2.58;;;11.90;99.90;;;;;;6272771;22;20011;-73
2023/10/30 08:27:10;;;;;;;19.83;4.30;;;12.00;99.90;;;;;;6270343;22;20115;-73
2023/10/30 08:29:35;;;;;;;13.30;2.30;;;12.10;99.90;;;;;;6272316;22;20329;-73
2023/10/30 08:32:01;;;;;;;9.73;2.28;;;12.20;99.90;;;;;;6271619;22;20012;-73
2023/10/30 08:34:26;;;;;;;8.82;2.30;;;12.30;99.90;;;;;;6272992;22;20008;-73
2023/10/30 08:36:52;;;;;;;8.68;2.05;;;12.30;99.90;;;;;;6271560;22;20011;-73
2023/10/30 08:39:17;;;;;;;12.68;3.25;;;12.40;99.90;;;;;;6270909;22;20298;-73
2023/10/30 08:41:43;;;;;;;6.15;2.17;;;12.50;99.90;;;;;;6272424;22;20421;-73
2023/10/30 08:44:09;;;;;;;8.05;3.05;;;12.60;99.90;;;;;;6244386;22;20004;-73
2023/10/30 08:46:34;;;;;;;13.27;2.58;;;12.70;99.90;;;;;;6271781;22;20003;-73
2023/10/30 08:49:00;;;;;;;6.28;1.88;;;12.80;99.90;;;;;;6270278;22;20004;-73
2023/10/30 08:51:25;;;;;;;7.15;2.45;;;12.80;99.90;;;;;;6272344;22;20417;-73
2023/10/30 08:53:51;;;;;;;12.60;2.10;;;13.00;99.90;;;;;;6271991;22;20061;-73
2023/10/30 08:56:17;;;;;;;6.00;2.13;;;13.00;99.90;;;;;;6269459;22;20440;-73
2023/10/30 08:58:43;;;;;;;7.10;1.90;;;13.10;99.90;;;;;;6271022;22;20014;-73
2023/10/30 09:01:09;;;;;;;9.13;2.03;;;13.10;99.90;;;;;;6271476;22;20003;-73
2023/10/30 09:03:34;;;;;;;7.75;2.20;;;13.20;99.90;;;;;;6272390;22;20125;-73
2023/10/30 09:06:00;;;;;;;11.63;2.60;;;13.20;99.90;;;;;;6272083;22;20440;-73
2023/10/30 09:08:25;;;;;;;10.05;2.25;;;13.30;99.90;;;;;;6270857;22;20007;-72
2023/10/30 09:10:51;;;;;;;9.60;2.55;;;13.30;99.90;;;;;;6270875;22;20000;-73
2023/10/30 09:13:17;;;;;;;9.07;1.98;;;13.40;99.90;;;;;;6271412;22;20000;-72
2023/10/30 09:15:43;;;;;;;7.72;1.63;;;13.50;99.90;;;;;;6271060;22;20000;-72
2023/10/30 09:18:08;;;;;;;8.05;2.10;;;13.50;99.90;;;;;;6272385;22;20004;-71
2023/10/30 09:20:34;;;;;;;12.75;2.42;;;13.50;99.90;;;;;;6270620;22;20011;-72
2023/10/30 09:23:00;;;;;;;7.97;3.10;;;13.60;99.90;;;;;;6271498;22;19996;-72
2023/10/30 09:25:26;;;;;;;11.18;2.60;;;13.60;99.90;;;;;;6271214;22;20011;-72
2023/10/30 09:27:51;;;;;;;9.38;2.30;;;13.70;99.90;;;;;;6244949;22;20031;-72
2023/10/30 09:30:18;;;;;;;11.95;1.98;;;13.70;99.90;;;;;;6269535;22;20019;-72
2023/10/30 09:32:44;;;;;;;14.43;2.58;;;13.80;99.90;;;;;;6272419;22;20516;-72
2023/10/30 09:35:09;;;;;;;9.32;2.20;;;13.80;99.90;;;;;;6270638;22;20034;-72
2023/10/30 09:37:35;;;;;;;12.10;2.20;;;13.90;99.90;;;;;;6272146;22;20083;-72
2023/10/30 09:40:02;;;;;;;14.25;2.15;;;14.00;99.90;;;;;;6271232;22;20007;-72
2023/10/30 09:42:29;;;;;;;6.53;1.75;;;14.00;99.90;;;;;;6270125;22;20357;-72
2023/10/30 09:44:54;;;;;;;5.78;2.08;;;14.10;99.90;;;;;;6271580;22;20003;-73
2023/10/30 09:47:23;;;;;;;9.23;2.65;;;14.10;99.90;;;;;;6271120;22;20003;-72
2023/10/30 09:49:50;;;;;;;7.13;1.95;;;14.20;99.90;;;;;;6271891;22;20004;-72
2023/10/30 09:52:15;;;;;;;7.80;1.60;;;14.20;99.90;;;;;;6270682;22;20027;-72
2023/10/30 09:54:44;;;;;;;8.32;2.80;;;14.30;99.90;;;;;;6271682;22;20004;-72
2023/10/30 09:57:12;;;;;;;6.35;1.83;;;14.30;99.90;;;;;;6244408;22;20004;-72
2023/10/30 09:59:38;;;;;;;11.75;2.22;;;14.40;99.90;;;;;;6271433;22;20034;-72
2023/10/30 10:02:03;;;;;;;8.90;2.35;;;14.40;99.90;;;;;;6271597;22;20094;-72
2023/10/30 10:04:29;;;;;;;5.97;1.25;;;14.50;99.90;;;;;;6270363;22;20071;-72
2023/10/30 10:06:55;;;;;;;10.98;1.95;;;14.50;99.90;;;;;;6272033;22;20003;-72
2023/10/30 10:09:21;;;;;;;9.38;2.00;;;14.50;99.90;;;;;;6271581;22;20000;-72
2023/10/30 10:11:46;;;;;;;8.25;1.73;;;14.50;99.90;;;;;;6271919;22;20000;-72
2023/10/30 10:14:14;;;;;;;9.95;1.70;;;14.50;99.90;;;;;;6270122;22;20004;-72
2023/10/30 10:16:40;;;;;;;9.55;1.90;;;14.50;99.90;;;;;;6244391;22;19999;-72
2023/10/30 10:19:22;;;;;;;6.70;1.70;;;14.50;99.90;;;;;;6270747;22;20004;-71
2023/10/30 10:21:51;;;;;;;10.45;2.45;;;14.60;99.90;;;;;;6271910;22;20000;-72
2023/10/30 10:24:30;;;;;;;8.63;1.60;;;14.50;99.90;;;;;;6271069;22;20004;-72
2023/10/30 10:26:58;;;;;;;10.00;1.75;;;14.60;99.90;;;;;;6270013;22;19996;-72
2023/10/30 10:29:23;;;;;;;9.25;1.83;;;14.50;99.90;;;;;;6271049;22;20003;-72
2023/10/30 10:31:49;;;;;;;11.85;2.03;;;14.50;99.90;;;;;;6271543;22;20382;-72
2023/10/30 10:34:15;;;;;;;6.90;1.70;;;14.50;99.90;;;;;;6271695;22;20078;-72
2023/10/30 10:36:41;;;;;;;8.05;1.42;;;14.60;99.90;;;;;;6272482;22;20420;-72
2023/10/30 10:39:07;;;;;;;6.70;1.88;;;14.60;99.90;;;;;;6272759;22;20376;-72
2023/10/30 10:41:33;;;;;;;7.93;1.92;;;14.70;99.90;;;;;;6273666;22;20007;-72
2023/10/30 10:44:00;;;;;;;9.25;1.98;;;14.70;99.90;;;;;;6272504;22;20003;-72
2023/10/30 10:46:25;;;;;;;8.55;2.45;;;14.70;99.90;;;;;;6273248;22;20795;-72
2023/10/30 10:48:51;;;;;;;8.65;1.35;;;14.80;99.90;;;;;;6272384;22;20057;-72
2023/10/30 10:51:37;;;;;;;8.10;1.52;;;14.80;99.90;;;;;;6246089;22;20085;-72
2023/10/30 10:54:10;;;;;;;7.35;1.80;;;14.80;99.90;;;;;;6273417;22;20000;-72
2023/10/30 10:56:38;;;;;;;5.93;1.67;;;14.80;99.90;;;;;;6273556;22;20003;-72
2023/10/30 10:59:10;;;;;;;4.38;1.40;;;14.80;99.90;;;;;;6243465;22;20588;-72
2023/10/30 11:01:39;;;;;;;5.32;1.48;;;14.80;99.90;;;;;;6273163;22;20003;-72
2023/10/30 11:04:05;;;;;;;9.73;2.17;;;14.90;99.90;;;;;;6272869;22;20007;-72
2023/10/30 11:06:41;;;;;;;9.05;1.75;;;14.90;99.90;;;;;;6273663;22;20421;-73
2023/10/30 11:09:16;;;;;;;8.57;2.38;;;15.00;99.90;;;;;;6271747;22;20007;-72
2023/10/30 11:12:04;;;;;;;9.55;1.65;;;15.10;99.90;;;;;;6273178;22;20004;-72
2023/10/30 11:14:48;;;;;;;9.48;2.00;;;15.10;99.90;;;;;;6273370;22;20305;-72
2023/10/30 11:17:14;;;;;;;7.05;1.30;;;15.20;99.90;;;;;;6273087;22;20472;-72
2023/10/30 11:19:41;;;;;;;6.20;1.17;;;15.20;99.90;;;;;;6272414;22;20007;-73
2023/10/30 11:22:07;;;;;;;10.10;1.70;;;15.20;99.90;;;;;;6272244;22;20368;-72
2023/10/30 11:24:38;;;;;;;9.50;2.22;;;15.30;99.90;;;;;;6273490;22;19999;-72
2023/10/30 11:27:25;;;;;;;8.23;1.85;;;15.20;99.90;;;;;;6272352;22;20050;-72
2023/10/30 11:29:55;;;;;;;12.35;2.22;;;15.30;99.90;;;;;;6272921;22;20391;-72
2023/10/30 11:32:24;;;;;;;7.10;1.48;;;15.30;99.90;;;;;;6271800;22;19999;-72
2023/10/30 11:34:49;;;;;;;10.45;2.70;;;15.30;99.90;;;;;;6273236;22;20008;-72
2023/10/30 11:37:17;;;;;;;8.70;1.70;;;15.40;99.90;;;;;;6272887;22;20004;-72
2023/10/30 11:39:45;;;;;;;6.47;1.75;;;15.40;99.90;;;;;;6273069;22;20020;-72
2023/10/30 11:42:23;;;;;;;7.43;1.77;;;15.50;99.90;;;;;;6270400;22;20067;-72
2023/10/30 11:44:52;;;;;;;9.38;1.85;;;15.50;99.90;;;;;;6272704;22;20000;-72
2023/10/30 11:47:24;;;;;;;6.13;1.33;;;15.60;99.90;;;;;;6271902;22;20102;-72
2023/10/30 11:49:55;;;;;;;7.13;1.85;;;15.60;99.90;;;;;;6273106;22;19999;-72
2023/10/30 11:52:20;;;;;;;4.47;1.30;;;15.60;99.90;;;;;;6271720;22;20008;-72
2023/10/30 11:54:48;;;;;;;9.23;2.75;;;15.60;99.90;;;;;;6272722;22;20026;-72
2023/10/30 11:57:14;;;;;;;10.35;3.60;;;15.60;99.90;;;;;;6272512;22;20007;-72
2023/10/30 11:59:40;;;;;;;2.88;1.20;;;15.70;99.90;;;;;;6273130;22;20019;-72
2023/10/30 12:02:06;;;;;;;7.05;1.05;;;15.60;99.90;;;;;;6272328;22;20000;-72
2023/10/30 12:04:34;;;;;;;10.55;2.03;;;15.60;99.90;;;;;;6244253;22;20010;-72
2023/10/30 12:07:00;;;;;;;4.63;1.00;;;15.60;99.90;;;;;;6270956;22;20368;-72
2023/10/30 12:09:26;;;;;;;5.25;1.40;;;15.60;99.90;;;;;;6272389;22;20035;-72
2023/10/30 12:11:53;;;;;;;6.60;1.40;;;15.50;99.90;;;;;;6245881;22;20004;-72
2023/10/30 12:14:21;;;;;;;10.10;1.48;;;15.50;99.90;;;;;;6271385;22;20004;-72
2023/10/30 12:16:51;;;;;;;7.10;1.65;;;15.40;99.90;;;;;;6272436;22;20019;-72
2023/10/30 12:19:23;;;;;;;9.82;1.67;;;15.50;99.90;;;;;;6272735;22;20018;-72
2023/10/30 12:21:50;;;;;;;6.07;1.50;;;15.40;99.90;;;;;;6245934;22;20091;-72
2023/10/30 12:24:17;;;;;;;7.78;1.40;;;15.40;99.90;;;;;;6272248;22;19999;-72
2023/10/30 12:26:43;;;;;;;5.90;1.17;;;15.40;99.90;;;;;;6271740;22;20083;-72
2023/10/30 12:29:09;;;;;;;5.43;1.00;;;15.40;99.90;;;;;;6272694;22;20007;-72
2023/10/30 12:31:35;;;;;;;6.18;1.50;;;15.40;99.90;;;;;;6272591;22;20007;-72
2023/10/30 12:34:16;;;;;;;4.28;1.10;;;15.40;99.90;;;;;;6272139;22;20003;-71
2023/10/30 12:36:41;;;;;;;7.75;1.35;;;15.40;99.90;;;;;;6271430;22;20004;-72
2023/10/30 12:39:14;;;;;;;5.05;1.25;;;15.40;99.90;;;;;;6271425;22;20305;-72
2023/10/30 12:41:39;;;;;;;6.07;1.40;;;15.40;99.90;;;;;;6273118;22;20019;-72